Lake Eildon, Victoria

3:38 AM AEST on September 02, 2015 (GMT +1000)
1.5 km west of ALEXANDRA P.O. | | Change Station
CLOSE
Current Station
Personal Weather Station
Location: ALEXANDRA, VIC
Elevation: 659 ft
Nearby Weather Stations

Elev 659 ft 37.19 °S, 145.69 °E | Updated 10 minutes ago

Clear
Clear
33.2 °F
Feels Like 33 °F
N
0.0
Wind Variable Wind from NNW
Gusts 0.0 mph

Today
High -- | Low -- °F
--% Chance of Precip.
Yesterday
High -- | Low -- °F
Precip. -- in
6:37 AM 5:55 PM
Waning Gibbous, 87% visible
Pressure 29.98 in
Visibility 3.7 miles
Clouds
Windchill 33 °F
Dew Point 32 °F
Humidity 95%
Rainfall 0.00 in
Snow Depth Not available.
UV Not available.
Pollen Not available.
Air Quality Not available.
Flu Activity Not available.
SPECI YWGT 011731Z AUTO 20004KT 6000 // NCD 02/01 Q1015
Pressure 29.98 in
Visibility 3.7 miles
Clouds
Windchill 33 °F
Dew Point 32 °F
Humidity 95%
Rainfall 0.00 in
Snow Depth Not available.
UV Not available.
Pollen Not available.
Air Quality Not available.
Flu Activity Not available.
SPECI YWGT 011731Z AUTO 20004KT 6000 // NCD 02/01 Q1015

10-Day Weather Forecast

×

Almanac

Astronomy

Sep. 02, 2015 Rise Set
Actual Time
Civil Twilight
Nautical Twilight
Astronomical Twilight
Moon
Length of Visible Light
Length of Day
Tomorrow will be .
, % of the Moon is Illuminated

Today's Extremes

Country Highs Country Lows

Community

WunderPhotos

Upload Photos

1,851,568 photos uploaded!

WunderBlogs® & News

Nearby

Air Quality

  Air Quality AQ Index Pollutant
Not available.

Snow Depth

Station Depth Elevation

Earthquake Activity

City Distance Mag. Time & Date
Minimum magnitude displayed is 2.5.

Coastal Water Temperatures

Place Temperature

Stations

Nearby Weather Stations

Station Location Temp. Windchill Dew Point Humidity Wind Precip. Elev Updated Type